createdAt,value
2022-11-22T00:00:52.314Z,89.40
2022-11-22T00:03:20.168Z,89.00
2022-11-22T00:05:47.945Z,88.60
2022-11-22T00:08:15.728Z,88.50
2022-11-22T00:10:43.559Z,89.00
2022-11-22T00:13:12.744Z,88.10
2022-11-22T00:15:40.514Z,87.10
2022-11-22T00:18:08.321Z,86.50
2022-11-22T00:20:36.320Z,86.90
2022-11-22T00:23:04.637Z,86.90
2022-11-22T00:25:32.459Z,86.50
2022-11-22T00:28:00.290Z,86.10
2022-11-22T00:30:29.473Z,86.60
2022-11-22T00:32:57.257Z,86.90
2022-11-22T00:35:25.012Z,87.70
2022-11-22T00:37:52.784Z,87.40
2022-11-22T00:40:20.712Z,87.50
2022-11-22T00:42:48.577Z,87.40
2022-11-22T00:45:16.679Z,87.70
2022-11-22T00:47:45.834Z,87.40
2022-11-22T00:50:13.724Z,87.40
2022-11-22T00:52:41.528Z,87.90
2022-11-22T00:55:09.505Z,88.20
2022-11-22T00:57:37.271Z,88.30
2022-11-22T01:00:07.043Z,88.30
2022-11-22T01:02:34.856Z,88.60
2022-11-22T01:05:04.023Z,89.40
2022-11-22T01:07:31.915Z,89.70
2022-11-22T01:09:59.752Z,90.20
2022-11-22T01:12:27.933Z,90.60
2022-11-22T01:14:55.727Z,91.40
2022-11-22T01:17:23.570Z,92.10
2022-11-22T01:19:51.407Z,93.10
2022-11-22T01:22:20.894Z,93.90
2022-11-22T01:24:48.726Z,94.90
2022-11-22T01:27:16.521Z,96.10
2022-11-22T01:29:44.320Z,96.20
2022-11-22T01:32:12.143Z,97.30
2022-11-22T01:34:40.048Z,98.00
2022-11-22T01:37:07.892Z,98.00
2022-11-22T01:39:37.044Z,98.30
2022-11-22T01:42:05.105Z,98.70
2022-11-22T01:44:34.225Z,98.70
2022-11-22T01:47:05.461Z,97.90
2022-11-22T01:49:36.703Z,98.00
2022-11-22T01:52:08.872Z,98.10
2022-11-22T01:54:42.339Z,97.80
2022-11-22T01:57:15.216Z,98.20
2022-11-22T01:59:46.966Z,98.10
2022-11-22T02:02:15.602Z,97.80
2022-11-22T02:04:44.727Z,97.80
2022-11-22T02:07:19.557Z,97.60
2022-11-22T02:09:52.115Z,98.00
2022-11-22T02:12:24.461Z,98.30
2022-11-22T02:14:52.978Z,98.70
2022-11-22T02:17:20.806Z,99.20
2022-11-22T02:19:50.695Z,99.20
2022-11-22T02:22:29.895Z,99.60
2022-11-22T02:25:07.181Z,99.60
2022-11-22T02:27:36.489Z,99.40
2022-11-22T02:30:04.642Z,98.50
2022-11-22T02:32:32.449Z,98.30
2022-11-22T02:35:00.222Z,98.60
2022-11-22T02:37:32.387Z,98.40
2022-11-22T02:40:05.935Z,98.10
2022-11-22T02:42:36.558Z,98.30
2022-11-22T02:45:04.852Z,98.10
2022-11-22T02:47:33.655Z,98.00
2022-11-22T02:50:01.434Z,97.70
2022-11-22T02:52:29.197Z,97.40
2022-11-22T02:54:56.972Z,97.40
2022-11-22T02:57:24.789Z,96.70
2022-11-22T02:59:53.971Z,96.20
2022-11-22T03:13:45.725Z,96.10
2022-11-22T03:16:14.875Z,94.90
2022-11-22T03:18:42.722Z,95.10
2022-11-22T03:21:11.241Z,95.30
2022-11-22T03:23:39.147Z,95.50
2022-11-22T03:26:10.970Z,95.70
2022-11-22T03:28:38.779Z,96.20
2022-11-22T03:31:07.177Z,96.30
2022-11-22T03:33:36.552Z,97.20
2022-11-22T03:36:05.025Z,97.00
2022-11-22T03:38:34.993Z,97.30
2022-11-22T03:41:02.921Z,97.70
2022-11-22T03:43:30.733Z,97.80
2022-11-22T03:45:58.493Z,97.80
2022-11-22T03:48:26.326Z,97.70
2022-11-22T03:50:55.465Z,98.60
2022-11-22T03:53:23.702Z,99.50
2022-11-22T03:55:51.574Z,99.50
2022-11-22T03:58:19.377Z,99.30
2022-11-22T04:00:47.158Z,98.50
2022-11-22T04:03:14.926Z,98.10
2022-11-22T04:05:42.724Z,97.60
2022-11-22T04:08:11.890Z,97.90
2022-11-22T04:10:39.677Z,98.00
2022-11-22T04:13:07.474Z,98.50
2022-11-22T04:15:34.304Z,98.90
2022-11-22T04:18:02.064Z,99.20
2022-11-22T04:20:49.905Z,99.20
2022-11-22T04:23:21.144Z,99.90
2022-11-22T04:25:50.064Z,99.70
2022-11-22T04:28:19.415Z,99.40
2022-11-22T04:31:04.881Z,98.20
2022-11-22T04:33:32.763Z,97.60
2022-11-22T04:36:00.806Z,97.30
2022-11-22T04:38:29.971Z,96.80
2022-11-22T04:40:57.772Z,96.20
2022-11-22T04:43:44.234Z,96.10
2022-11-22T04:46:13.524Z,96.00
2022-11-22T04:48:41.373Z,96.10
2022-11-22T04:51:29.836Z,95.60
2022-11-22T04:53:59.011Z,95.60
2022-11-22T04:56:26.785Z,95.70
2022-11-22T04:58:55.394Z,95.60
2022-11-22T05:01:23.245Z,95.30
2022-11-22T05:03:51.089Z,95.50
2022-11-22T05:06:18.954Z,95.70
2022-11-22T05:08:46.766Z,95.80
2022-11-22T05:11:15.928Z,96.10
2022-11-22T05:13:44.075Z,96.30
2022-11-22T05:16:14.150Z,96.10
2022-11-22T05:18:42.572Z,95.90
2022-11-22T05:21:12.692Z,96.00
2022-11-22T05:23:55.083Z,96.00
2022-11-22T05:26:25.523Z,95.70
2022-11-22T05:28:53.514Z,95.90
2022-11-22T05:31:23.506Z,96.80
2022-11-22T05:33:52.888Z,97.20
2022-11-22T05:36:21.276Z,97.50
2022-11-22T05:38:49.749Z,97.40
2022-11-22T05:41:18.485Z,96.40
2022-11-22T05:43:47.786Z,96.30
2022-11-22T05:46:23.971Z,95.60
2022-11-22T05:48:53.506Z,95.60
2022-11-22T05:51:23.624Z,96.00
2022-11-22T05:53:51.542Z,95.50
2022-11-22T05:56:20.985Z,95.00
2022-11-22T05:58:50.246Z,94.80
2022-11-22T06:01:19.590Z,94.30
2022-11-22T06:03:47.638Z,93.70
2022-11-22T06:06:16.122Z,94.10
2022-11-22T06:08:47.560Z,93.60
2022-11-22T06:11:17.191Z,92.90
2022-11-22T06:13:46.209Z,92.70
2022-11-22T06:16:16.013Z,92.50
2022-11-22T06:18:44.069Z,92.30
2022-11-22T06:21:13.724Z,91.90
2022-11-22T06:23:42.123Z,91.20
2022-11-22T06:26:12.645Z,90.80
2022-11-22T06:28:41.391Z,91.70
2022-11-22T06:31:11.916Z,90.50
2022-11-22T06:33:41.720Z,90.50
2022-11-22T06:36:12.066Z,91.00
2022-11-22T06:38:40.635Z,91.30
2022-11-22T06:41:10.438Z,91.30
2022-11-22T06:43:43.616Z,91.10
2022-11-22T06:46:15.285Z,91.70
2022-11-22T06:48:44.627Z,92.60
2022-11-22T06:51:15.124Z,93.40
2022-11-22T06:53:48.168Z,93.80
2022-11-22T06:56:18.436Z,94.20
2022-11-22T06:58:46.687Z,94.90
2022-11-22T07:01:16.548Z,94.80
2022-11-22T07:03:46.563Z,95.30
2022-11-22T07:06:15.752Z,95.30
2022-11-22T07:08:43.670Z,95.40
2022-11-22T07:11:13.368Z,95.70
2022-11-22T07:13:41.930Z,96.30
2022-11-22T07:16:11.770Z,96.00
2022-11-22T07:18:39.607Z,95.10
2022-11-22T07:21:13.186Z,94.20
2022-11-22T07:23:42.814Z,92.60
2022-11-22T07:26:11.013Z,89.60
2022-11-22T07:28:39.389Z,88.40
2022-11-22T07:31:08.815Z,87.70
2022-11-22T07:33:36.943Z,87.90
2022-11-22T07:36:06.485Z,87.80
2022-11-22T07:38:36.465Z,87.60
2022-11-22T07:41:04.777Z,87.60
2022-11-22T07:43:32.826Z,87.70
2022-11-22T07:46:00.872Z,87.80
2022-11-22T07:48:28.692Z,87.40
2022-11-22T07:50:56.556Z,87.70
2022-11-22T07:53:24.458Z,87.20
2022-11-22T07:55:53.576Z,87.40
2022-11-22T07:58:21.376Z,86.90
2022-11-22T08:00:49.582Z,87.40
2022-11-22T08:03:18.292Z,87.30
2022-11-22T08:05:46.955Z,87.20
2022-11-22T08:08:14.773Z,86.90
2022-11-22T08:10:42.694Z,86.10
2022-11-22T08:13:11.840Z,85.10
2022-11-22T08:15:39.668Z,84.40
2022-11-22T08:18:07.477Z,84.50
2022-11-22T08:20:35.270Z,84.60
2022-11-22T08:23:03.080Z,84.70
2022-11-22T08:25:30.881Z,83.70
2022-11-22T08:27:58.678Z,84.50
2022-11-22T08:30:27.814Z,83.60
2022-11-22T08:32:56.101Z,81.90
2022-11-22T08:35:24.277Z,82.10
2022-11-22T08:37:56.710Z,82.50
2022-11-22T08:40:24.644Z,82.30
2022-11-22T08:42:55.380Z,82.00
2022-11-22T08:45:23.177Z,82.30
2022-11-22T08:47:52.565Z,82.40
2022-11-22T08:50:20.446Z,82.20
2022-11-22T08:52:48.280Z,82.50
2022-11-22T08:55:16.174Z,80.90
2022-11-22T08:57:43.972Z,80.90
2022-11-22T09:00:12.977Z,80.90
2022-11-22T09:02:40.766Z,78.70
2022-11-22T09:05:10.544Z,79.30
2022-11-22T09:10:26.395Z,79.50
2022-11-22T09:12:54.228Z,79.30
2022-11-22T09:15:22.204Z,78.20
2022-11-22T09:17:50.012Z,79.80
2022-11-22T09:20:19.539Z,78.90
2022-11-22T09:22:47.311Z,79.10
2022-11-22T09:25:15.058Z,78.60
2022-11-22T09:27:42.831Z,78.10
2022-11-22T09:30:11.837Z,76.80
2022-11-22T09:32:39.589Z,76.70
2022-11-22T09:35:07.765Z,76.10
2022-11-22T09:37:36.906Z,74.90
2022-11-22T09:40:05.252Z,74.40
2022-11-22T09:43:03.432Z,75.00
2022-11-22T09:45:43.186Z,74.60
2022-11-22T09:48:26.968Z,73.70
2022-11-22T09:51:03.412Z,73.60
2022-11-22T09:53:40.288Z,73.60
2022-11-22T09:56:12.808Z,73.40
2022-11-22T09:58:43.874Z,73.10
2022-11-22T10:01:18.372Z,73.10
2022-11-22T10:03:50.354Z,73.30
2022-11-22T10:06:23.425Z,73.00
2022-11-22T10:09:04.263Z,72.80
2022-11-22T10:11:37.324Z,72.40
2022-11-22T10:14:14.282Z,72.80
2022-11-22T10:16:48.799Z,73.50
2022-11-22T10:19:21.895Z,73.00
2022-11-22T10:21:49.719Z,73.50
2022-11-22T10:24:19.768Z,74.40
2022-11-22T10:26:47.843Z,73.30
2022-11-22T10:29:26.682Z,73.50
2022-11-22T10:32:03.210Z,73.50
2022-11-22T10:34:45.304Z,73.30
2022-11-22T10:37:23.550Z,71.70
2022-11-22T10:40:02.859Z,72.50
2022-11-22T10:43:02.478Z,70.50
2022-11-22T10:45:35.068Z,71.30
2022-11-22T10:48:16.191Z,69.80
2022-11-22T10:50:55.177Z,69.70
2022-11-22T10:53:30.554Z,69.90
2022-11-22T10:56:06.229Z,70.10
2022-11-22T10:58:45.117Z,71.00
2022-11-22T11:01:20.267Z,69.80
2022-11-22T11:03:52.182Z,70.60
2022-11-22T11:06:43.598Z,69.70
2022-11-22T11:12:14.926Z,69.10
2022-11-22T11:14:46.572Z,69.60
2022-11-22T11:17:18.555Z,69.70
2022-11-22T11:19:50.337Z,70.30
2022-11-22T11:22:42.772Z,70.70
2022-11-22T11:25:33.196Z,70.30
2022-11-22T11:28:06.326Z,70.30
2022-11-22T11:30:40.140Z,70.50
2022-11-22T11:33:19.339Z,70.20
2022-11-22T11:35:47.513Z,69.20
2022-11-22T11:38:33.403Z,70.20
2022-11-22T11:41:18.727Z,69.50
2022-11-22T11:43:48.296Z,70.50
2022-11-22T11:46:18.771Z,68.00
2022-11-22T11:48:46.904Z,70.30
2022-11-22T11:51:22.034Z,69.60
2022-11-22T11:54:02.833Z,69.20
2022-11-22T11:56:45.141Z,70.10
2022-11-22T11:59:16.435Z,70.70
2022-11-22T12:01:54.257Z,70.80
2022-11-22T12:04:26.267Z,67.80
2022-11-22T12:07:01.615Z,68.00
2022-11-22T12:09:43.554Z,69.10
2022-11-22T12:12:25.430Z,69.80
2022-11-22T12:15:11.179Z,69.20
2022-11-22T12:17:49.846Z,69.60
2022-11-22T12:20:22.965Z,69.60
2022-11-22T12:23:02.277Z,68.90
2022-11-22T12:25:35.688Z,69.80
2022-11-22T12:28:13.661Z,69.50
2022-11-22T12:30:45.079Z,69.30
2022-11-22T12:33:19.683Z,69.40
2022-11-22T12:35:48.705Z,69.30
2022-11-22T12:38:20.416Z,69.80
2022-11-22T12:40:51.307Z,70.00
2022-11-22T12:43:23.508Z,70.10
2022-11-22T12:45:55.994Z,70.80
2022-11-22T12:48:31.143Z,69.60
2022-11-22T12:51:04.543Z,68.90
2022-11-22T12:53:36.915Z,69.80
2022-11-22T12:56:12.170Z,70.70
2022-11-22T12:58:45.934Z,70.40
2022-11-22T13:01:20.523Z,69.80
2022-11-22T13:03:53.360Z,69.80
2022-11-22T13:06:25.973Z,69.10
2022-11-22T13:09:03.965Z,70.50
2022-11-22T13:11:35.555Z,69.90
2022-11-22T13:14:07.456Z,71.00
2022-11-22T13:16:37.707Z,70.50
2022-11-22T13:19:07.753Z,71.00
2022-11-22T13:21:50.351Z,70.90
2022-11-22T13:24:36.899Z,71.20
2022-11-22T13:27:14.599Z,71.00
2022-11-22T13:29:44.450Z,70.80
2022-11-22T13:32:23.582Z,70.40
2022-11-22T13:35:20.797Z,70.60
2022-11-22T13:37:53.236Z,71.40
2022-11-22T13:40:26.278Z,70.80
2022-11-22T13:43:31.646Z,69.70
2022-11-22T13:46:00.721Z,70.40
2022-11-22T13:49:13.247Z,71.10
2022-11-22T13:51:53.066Z,70.70
2022-11-22T13:54:53.962Z,70.60
2022-11-22T13:57:28.519Z,70.60
2022-11-22T14:00:29.804Z,71.60
2022-11-22T14:03:34.535Z,70.90
2022-11-22T14:06:17.120Z,70.60
2022-11-22T14:08:45.007Z,70.40
2022-11-22T14:11:35.160Z,69.90
2022-11-22T14:14:15.867Z,70.50
2022-11-22T14:16:55.737Z,70.60
2022-11-22T14:19:34.503Z,71.10
2022-11-22T14:22:18.006Z,71.10
2022-11-22T14:24:57.012Z,71.30
2022-11-22T14:27:37.409Z,71.20
2022-11-22T14:30:17.006Z,70.60
2022-11-22T14:32:55.372Z,71.00
2022-11-22T14:35:30.056Z,71.10
2022-11-22T14:38:03.022Z,71.00
2022-11-22T14:40:33.873Z,71.40
2022-11-22T14:43:05.731Z,71.90
2022-11-22T14:45:44.244Z,71.60
2022-11-22T14:48:20.663Z,71.70
2022-11-22T14:50:52.866Z,71.80
2022-11-22T14:53:30.931Z,72.00
2022-11-22T14:56:05.829Z,72.40
2022-11-22T14:58:39.293Z,71.90
2022-11-22T15:01:21.833Z,72.00
2022-11-22T15:09:16.793Z,72.80
2022-11-22T15:09:21.286Z,73.90
2022-11-22T15:10:52.348Z,74.30
2022-11-22T15:13:39.307Z,74.40
2022-11-22T15:57:26.852Z,73.60
2022-11-22T15:59:55.631Z,74.10
2022-11-22T16:02:27.602Z,74.40
2022-11-22T16:06:05.857Z,74.20
2022-11-22T16:07:48.777Z,74.40
2022-11-22T16:10:21.264Z,74.10
2022-11-22T16:12:49.590Z,74.10
2022-11-22T16:15:26.418Z,74.10
2022-11-22T16:18:06.578Z,74.30
2022-11-22T16:20:35.793Z,73.80
2022-11-22T16:23:26.487Z,74.00
2022-11-22T16:26:00.015Z,73.80
2022-11-22T16:28:33.620Z,73.90
2022-11-22T16:31:04.386Z,73.80
2022-11-22T16:33:33.591Z,74.00
2022-11-22T16:36:02.700Z,74.40
2022-11-22T16:38:30.771Z,75.00
2022-11-22T16:40:59.976Z,76.60
2022-11-22T16:43:34.929Z,77.60
2022-11-22T16:46:03.023Z,78.50
2022-11-22T16:48:32.928Z,79.20
2022-11-22T16:51:04.935Z,79.90
2022-11-22T16:53:40.829Z,79.30
2022-11-22T16:56:09.410Z,79.60
2022-11-22T16:58:37.270Z,79.30
2022-11-22T17:01:05.163Z,79.40
2022-11-22T17:03:36.360Z,79.50
2022-11-22T17:06:05.588Z,79.40
2022-11-22T17:08:33.380Z,79.40
2022-11-22T17:11:01.149Z,79.50
2022-11-22T17:13:28.982Z,79.20
2022-11-22T17:15:57.801Z,79.10
2022-11-22T17:18:25.607Z,79.50
2022-11-22T17:20:53.590Z,79.50
2022-11-22T17:23:28.362Z,79.20
2022-11-22T17:25:56.167Z,78.50
2022-11-22T17:28:24.149Z,78.50
2022-11-22T17:30:52.143Z,78.40
2022-11-22T17:33:20.119Z,78.40
2022-11-22T17:35:47.983Z,78.50
2022-11-22T17:38:15.835Z,77.70
2022-11-22T17:40:45.310Z,78.40
2022-11-22T17:43:13.282Z,78.40
2022-11-22T17:45:43.369Z,78.10
2022-11-22T17:48:11.700Z,78.20
2022-11-22T17:50:39.836Z,78.00
2022-11-22T17:53:07.760Z,77.90
2022-11-22T17:56:02.714Z,77.70
2022-11-22T17:58:24.931Z,78.00
2022-11-22T18:00:52.796Z,78.00
2022-11-22T18:03:20.696Z,78.00
2022-11-22T18:05:48.524Z,77.80
2022-11-22T18:08:16.348Z,77.70
2022-11-22T18:10:44.153Z,77.70
2022-11-22T18:13:27.421Z,77.90
2022-11-22T18:16:03.180Z,78.00
2022-11-22T18:21:19.714Z,78.40
2022-11-22T18:23:47.529Z,78.80
2022-11-22T18:29:35.616Z,79.60
2022-11-22T18:31:53.407Z,79.20
2022-11-22T18:34:21.725Z,79.10
2022-11-22T18:37:01.856Z,79.30
2022-11-22T18:39:32.280Z,79.60
2022-11-22T18:42:00.347Z,79.70
2022-11-22T18:44:28.257Z,79.60
2022-11-22T18:46:57.398Z,79.50
2022-11-22T18:49:25.267Z,79.50
2022-11-22T18:51:53.082Z,79.70
2022-11-22T18:54:22.006Z,80.20
2022-11-22T18:56:50.012Z,80.50
2022-11-22T18:59:18.363Z,80.90
2022-11-22T19:01:46.587Z,81.00
2022-11-22T19:04:16.620Z,80.80
2022-11-22T19:06:45.042Z,81.00
2022-11-22T19:09:13.309Z,81.10
2022-11-22T19:11:41.176Z,81.40
2022-11-22T19:14:10.351Z,81.70
2022-11-22T19:16:38.291Z,81.80
2022-11-22T19:19:08.106Z,82.40
2022-11-22T19:21:37.266Z,82.50
2022-11-22T19:24:05.844Z,82.80
2022-11-22T19:26:33.679Z,83.10
2022-11-22T19:29:02.560Z,83.70
2022-11-22T19:31:31.312Z,84.00
2022-11-22T19:33:59.789Z,83.80
2022-11-22T19:36:33.268Z,84.10
2022-11-22T19:39:04.371Z,84.00
2022-11-22T19:41:32.819Z,84.30
2022-11-22T19:44:00.718Z,84.60
2022-11-22T19:46:28.699Z,84.90
2022-11-22T19:48:57.849Z,84.00
2022-11-22T19:51:27.292Z,83.80
2022-11-22T19:53:58.672Z,83.80
2022-11-22T19:56:30.133Z,83.60
2022-11-22T19:58:59.146Z,83.70
2022-11-22T20:01:29.552Z,83.70
2022-11-22T20:04:00.817Z,83.60
2022-11-22T20:06:29.147Z,83.10
2022-11-22T20:09:01.788Z,83.30
2022-11-22T20:11:31.003Z,83.40
2022-11-22T20:13:59.204Z,83.20
2022-11-22T20:16:28.824Z,83.70
2022-11-22T20:18:57.547Z,83.80
2022-11-22T20:21:26.787Z,83.80
2022-11-22T20:23:55.115Z,83.80
2022-11-22T20:26:23.830Z,83.70
2022-11-22T20:28:57.638Z,83.60
2022-11-22T20:31:25.976Z,83.20
2022-11-22T20:33:55.166Z,83.50
2022-11-22T20:36:24.843Z,83.20
2022-11-22T20:38:53.533Z,83.10
2022-11-22T20:41:22.967Z,83.50
2022-11-22T20:43:50.948Z,83.90
2022-11-22T20:46:22.009Z,83.90
2022-11-22T20:48:52.003Z,84.40
2022-11-22T20:51:21.804Z,84.50
2022-11-22T20:53:50.169Z,84.60
2022-11-22T20:56:19.122Z,85.00
2022-11-22T20:58:47.092Z,85.30
2022-11-22T21:01:16.866Z,85.30
2022-11-22T21:03:46.357Z,85.60
2022-11-22T21:06:15.517Z,85.60
2022-11-22T21:08:45.183Z,85.50
2022-11-22T21:11:14.772Z,85.30
2022-11-22T21:13:43.774Z,85.30
2022-11-22T21:16:22.701Z,84.70
2022-11-22T21:18:55.833Z,84.80
2022-11-22T21:21:24.973Z,84.30
2022-11-22T21:23:54.138Z,84.20
2022-11-22T21:26:22.513Z,83.80
2022-11-22T21:28:50.797Z,84.10
2022-11-22T21:31:19.117Z,83.80
2022-11-22T21:33:47.288Z,84.20
2022-11-22T21:36:16.729Z,84.30
2022-11-22T21:38:44.618Z,84.70
2022-11-22T21:41:38.747Z,85.40
2022-11-22T21:44:04.110Z,85.80
2022-11-22T21:46:31.916Z,85.90
2022-11-22T21:49:00.010Z,85.80
2022-11-22T21:51:29.279Z,86.00
2022-11-22T21:53:58.535Z,85.80
2022-11-22T21:56:26.739Z,85.90
2022-11-22T21:58:55.181Z,85.80
2022-11-22T22:01:23.704Z,86.00
2022-11-22T22:03:52.089Z,85.90
2022-11-22T22:06:19.988Z,85.10
2022-11-22T22:08:49.490Z,85.00
2022-11-22T22:11:17.717Z,85.00
2022-11-22T22:13:45.636Z,84.50
2022-11-22T22:16:18.516Z,84.50
2022-11-22T22:18:47.187Z,84.30
2022-11-22T22:21:16.464Z,84.10
2022-11-22T22:23:45.486Z,84.10
2022-11-22T22:26:16.904Z,85.00
2022-11-22T22:28:46.079Z,85.20
2022-11-22T22:31:16.935Z,85.50
2022-11-22T22:33:45.470Z,85.10
2022-11-22T22:36:13.337Z,85.50
2022-11-22T22:38:43.167Z,85.90
2022-11-22T22:41:12.955Z,86.40
2022-11-22T22:43:43.868Z,86.80
2022-11-22T22:46:13.514Z,87.60
2022-11-22T22:48:42.202Z,87.50
2022-11-22T22:51:13.154Z,87.00
2022-11-22T22:53:41.811Z,87.50
2022-11-22T22:56:10.422Z,87.30
2022-11-22T22:58:38.674Z,87.50
2022-11-22T23:01:10.136Z,87.50
2022-11-22T23:03:38.114Z,88.10
2022-11-22T23:06:07.508Z,88.50
2022-11-22T23:08:35.603Z,88.40
2022-11-22T23:11:05.090Z,88.80
2022-11-22T23:13:33.258Z,88.60
2022-11-22T23:16:01.486Z,88.70
2022-11-22T23:18:30.687Z,89.80
2022-11-22T23:21:02.347Z,88.40
2022-11-22T23:23:37.514Z,88.80
2022-11-22T23:26:07.052Z,88.80
2022-11-22T23:28:35.054Z,87.90
2022-11-22T23:31:07.187Z,88.00
2022-11-22T23:33:36.620Z,87.40
2022-11-22T23:36:06.451Z,88.90
2022-11-22T23:38:34.587Z,88.80
2022-11-22T23:41:02.895Z,88.50
2022-11-22T23:43:30.952Z,88.50
2022-11-22T23:45:59.581Z,88.20
2022-11-22T23:48:28.133Z,88.00
2022-11-22T23:51:02.589Z,87.30
2022-11-22T23:53:30.446Z,87.50
2022-11-22T23:56:05.594Z,87.80
2022-11-22T23:58:33.491Z,88.40
